createdAt,value
2018-06-16T00:00:19.589Z,11.07
2018-06-16T00:02:52.674Z,13.77
2018-06-16T00:05:25.094Z,14.73
2018-06-16T00:07:57.750Z,15.10
2018-06-16T00:10:30.391Z,16.37
2018-06-16T00:13:03.082Z,12.73
2018-06-16T00:15:35.496Z,15.30
2018-06-16T00:18:08.356Z,17.33
2018-06-16T00:20:41.037Z,11.40
2018-06-16T00:23:13.453Z,12.77
2018-06-16T00:25:45.861Z,13.13
2018-06-16T00:28:18.258Z,11.30
2018-06-16T00:30:50.980Z,10.43
2018-06-16T00:33:23.393Z,9.10
2018-06-16T00:35:56.082Z,17.07
2018-06-16T00:38:28.529Z,13.70
2018-06-16T00:41:00.914Z,12.53
2018-06-16T00:43:33.325Z,10.67
2018-06-16T00:46:05.717Z,14.13
2018-06-16T00:48:38.125Z,15.43
2018-06-16T00:51:10.526Z,11.97
2018-06-16T00:53:42.970Z,14.90
2018-06-16T00:56:15.353Z,9.40
2018-06-16T00:58:48.042Z,11.90
2018-06-16T01:01:20.426Z,16.33
2018-06-16T01:03:52.834Z,11.90
2018-06-16T01:06:25.216Z,10.33
2018-06-16T01:08:57.631Z,10.23
2018-06-16T01:11:30.027Z,11.40
2018-06-16T01:14:02.469Z,10.93
2018-06-16T01:16:34.736Z,16.33
2018-06-16T01:19:07.170Z,10.37
2018-06-16T01:21:39.553Z,13.80
2018-06-16T01:24:12.269Z,9.77
2018-06-16T01:26:44.662Z,11.27
2018-06-16T01:29:17.525Z,12.33
2018-06-16T01:31:50.478Z,8.73
2018-06-16T01:34:22.890Z,12.87
2018-06-16T01:36:55.298Z,17.57
2018-06-16T01:39:27.701Z,10.00
2018-06-16T01:42:00.100Z,11.47
2018-06-16T01:44:33.087Z,12.50
2018-06-16T01:47:05.498Z,14.77
2018-06-16T01:49:37.930Z,14.10
2018-06-16T01:52:10.670Z,10.30
2018-06-16T01:54:43.682Z,9.87
2018-06-16T01:57:16.360Z,12.53
2018-06-16T01:59:49.021Z,10.67
2018-06-16T02:02:21.444Z,11.73
2018-06-16T02:04:54.194Z,11.63
2018-06-16T02:07:26.850Z,9.03
2018-06-16T02:09:59.274Z,10.77
2018-06-16T02:12:31.675Z,12.53
2018-06-16T02:15:04.706Z,8.23
2018-06-16T02:17:37.123Z,11.33
2018-06-16T02:20:09.845Z,8.97
2018-06-16T02:22:42.318Z,16.10
2018-06-16T02:25:15.023Z,9.80
2018-06-16T02:27:47.478Z,20.57
2018-06-16T02:30:19.898Z,9.87
2018-06-16T02:32:52.607Z,8.63
2018-06-16T02:35:25.303Z,13.00
2018-06-16T02:37:57.724Z,13.43
2018-06-16T02:40:30.692Z,13.90
2018-06-16T02:43:03.369Z,9.23
2018-06-16T02:45:35.789Z,13.00
2018-06-16T02:48:08.726Z,14.70
2018-06-16T02:50:41.713Z,11.80
2018-06-16T02:53:14.128Z,10.20
2018-06-16T02:55:46.541Z,12.83
2018-06-16T02:58:18.990Z,11.77
2018-06-16T03:00:51.405Z,9.63
2018-06-16T03:03:24.349Z,13.67
2018-06-16T03:05:56.821Z,9.83
2018-06-16T03:08:29.242Z,10.77
2018-06-16T03:11:02.319Z,13.53
2018-06-16T03:13:34.717Z,9.93
2018-06-16T03:16:07.159Z,11.90
2018-06-16T03:18:40.122Z,16.00
2018-06-16T03:21:12.557Z,12.40
2018-06-16T03:23:44.973Z,14.10
2018-06-16T03:26:17.406Z,13.77
2018-06-16T03:28:49.816Z,15.03
2018-06-16T03:31:22.224Z,11.03
2018-06-16T03:33:55.185Z,11.40
2018-06-16T03:36:27.662Z,13.40
2018-06-16T03:39:00.009Z,12.57
2018-06-16T03:41:32.695Z,14.37
2018-06-16T03:44:05.203Z,12.13
2018-06-16T03:46:37.961Z,11.33
2018-06-16T03:49:10.386Z,12.93
2018-06-16T03:51:42.849Z,11.33
2018-06-16T03:54:15.306Z,17.47
2018-06-16T03:56:48.361Z,10.93
2018-06-16T03:59:21.025Z,12.93
2018-06-16T04:01:53.717Z,10.30
2018-06-16T04:04:26.385Z,12.23
2018-06-16T04:06:58.813Z,12.17
2018-06-16T04:09:31.474Z,12.47
2018-06-16T04:12:03.865Z,13.47
2018-06-16T04:14:36.288Z,10.43
2018-06-16T04:17:08.686Z,12.13
2018-06-16T04:19:41.581Z,15.77
2018-06-16T04:22:13.968Z,11.93
2018-06-16T04:24:46.362Z,16.40
2018-06-16T04:27:18.790Z,13.23
2018-06-16T04:29:51.181Z,9.57
2018-06-16T04:32:23.808Z,13.70
2018-06-16T04:34:56.620Z,7.87
2018-06-16T04:37:28.900Z,10.30
2018-06-16T04:40:01.318Z,12.40
2018-06-16T04:42:33.711Z,7.67
2018-06-16T04:45:06.418Z,9.23
2018-06-16T04:47:39.141Z,8.73
2018-06-16T04:50:11.570Z,7.70
2018-06-16T04:52:43.962Z,10.77
2018-06-16T04:55:16.361Z,9.70
2018-06-16T04:57:49.041Z,11.20
2018-06-16T05:00:21.477Z,14.53
2018-06-16T05:02:54.148Z,15.53
2018-06-16T05:05:26.545Z,11.77
2018-06-16T05:07:58.949Z,9.70
2018-06-16T05:10:31.398Z,13.43
2018-06-16T05:13:03.778Z,8.73
2018-06-16T05:15:36.181Z,12.87
2018-06-16T05:18:08.581Z,12.03
2018-06-16T05:20:40.992Z,10.10
2018-06-16T05:23:13.393Z,7.43
2018-06-16T05:25:45.866Z,7.07
2018-06-16T05:28:18.217Z,7.57
2018-06-16T05:30:50.619Z,8.07
2018-06-16T05:33:23.008Z,6.20
2018-06-16T05:35:55.257Z,9.57
2018-06-16T05:38:27.653Z,10.27
2018-06-16T05:41:00.035Z,7.40
2018-06-16T05:43:32.421Z,12.20
2018-06-16T05:46:05.389Z,10.87
2018-06-16T05:48:37.774Z,10.03
2018-06-16T05:51:10.201Z,12.43
2018-06-16T05:53:42.988Z,8.65
2018-06-16T05:56:15.392Z,5.22
2018-06-16T05:58:47.993Z,6.62
2018-06-16T06:01:20.634Z,8.10
2018-06-16T06:03:53.369Z,12.65
2018-06-16T06:06:26.069Z,9.48
2018-06-16T06:08:58.449Z,7.62
2018-06-16T06:11:30.901Z,6.97
2018-06-16T06:14:03.722Z,7.42
2018-06-16T06:16:36.129Z,9.38
2018-06-16T06:19:08.515Z,6.95
2018-06-16T06:21:41.202Z,10.80
2018-06-16T06:24:13.866Z,9.03
2018-06-16T06:26:46.913Z,4.72
2018-06-16T06:29:19.305Z,7.42
2018-06-16T06:31:52.062Z,5.80
2018-06-16T06:34:24.466Z,6.10
2018-06-16T06:36:56.908Z,6.58
2018-06-16T06:39:29.554Z,6.20
2018-06-16T06:42:01.970Z,7.40
2018-06-16T06:44:34.353Z,9.13
2018-06-16T06:47:06.862Z,8.38
2018-06-16T06:49:39.274Z,7.25
2018-06-16T06:52:11.745Z,6.45
2018-06-16T06:54:44.181Z,8.75
2018-06-16T06:57:16.601Z,6.28
2018-06-16T06:59:49.341Z,7.37
2018-06-16T07:02:21.797Z,5.53
2018-06-16T07:04:54.201Z,10.63
2018-06-16T07:07:26.629Z,7.05
2018-06-16T07:09:59.043Z,8.58
2018-06-16T07:12:31.453Z,8.05
2018-06-16T07:15:03.902Z,8.00
2018-06-16T07:17:36.314Z,4.95
2018-06-16T07:20:08.774Z,7.70
2018-06-16T07:22:41.527Z,5.35
2018-06-16T07:25:14.018Z,6.75
2018-06-16T07:27:46.449Z,7.05
2018-06-16T07:30:18.862Z,8.85
2018-06-16T07:32:51.277Z,7.12
2018-06-16T07:35:24.041Z,6.05
2018-06-16T07:37:56.285Z,7.20
2018-06-16T07:40:28.695Z,5.95
2018-06-16T07:43:01.233Z,6.58
2018-06-16T07:45:33.634Z,8.15
2018-06-16T07:48:06.055Z,9.35
2018-06-16T07:50:38.758Z,7.28
2018-06-16T07:53:11.153Z,7.05
2018-06-16T07:55:43.604Z,9.13
2018-06-16T07:58:16.281Z,11.38
2018-06-16T08:00:48.661Z,7.75
2018-06-16T08:03:21.080Z,9.38
2018-06-16T08:05:53.503Z,7.95
2018-06-16T08:08:25.900Z,10.60
2018-06-16T08:10:58.296Z,8.43
2018-06-16T08:13:30.701Z,4.92
2018-06-16T08:16:03.397Z,6.58
2018-06-16T08:18:35.814Z,7.30
2018-06-16T08:21:08.213Z,9.23
2018-06-16T08:23:40.626Z,6.12
2018-06-16T08:26:13.085Z,6.83
2018-06-16T08:28:45.560Z,8.70
2018-06-16T08:31:17.954Z,8.48
2018-06-16T08:33:50.770Z,9.88
2018-06-16T08:36:23.493Z,10.38
2018-06-16T08:38:55.933Z,7.72
2018-06-16T08:41:28.376Z,6.80
2018-06-16T08:44:00.792Z,8.60
2018-06-16T08:46:33.597Z,8.35
2018-06-16T08:49:06.122Z,7.47
2018-06-16T08:51:38.513Z,8.73
2018-06-16T08:54:11.205Z,12.75
2018-06-16T08:56:43.695Z,8.35
2018-06-16T08:59:16.145Z,6.70
2018-06-16T09:01:48.850Z,8.43
2018-06-16T09:04:21.240Z,5.50
2018-06-16T09:06:53.654Z,8.55
2018-06-16T09:09:26.327Z,7.47
2018-06-16T09:11:58.846Z,8.85
2018-06-16T09:14:31.525Z,6.35
2018-06-16T09:17:04.006Z,9.90
2018-06-16T09:19:36.783Z,5.20
2018-06-16T09:22:09.505Z,8.00
2018-06-16T09:24:42.035Z,7.37
2018-06-16T09:27:14.437Z,8.33
2018-06-16T09:29:47.085Z,6.42
2018-06-16T09:32:19.765Z,7.15
2018-06-16T09:34:52.543Z,3.60
2018-06-16T09:37:25.030Z,6.05
2018-06-16T09:39:57.494Z,5.92
2018-06-16T09:42:30.002Z,7.87
2018-06-16T09:45:02.375Z,6.03
2018-06-16T09:47:34.782Z,5.83
2018-06-16T09:50:07.286Z,5.15
2018-06-16T09:52:39.706Z,4.67
2018-06-16T09:55:12.645Z,5.22
2018-06-16T09:57:45.117Z,4.45
2018-06-16T10:00:17.694Z,3.47
2018-06-16T10:02:50.219Z,6.22
2018-06-16T10:05:22.657Z,6.45
2018-06-16T10:07:55.423Z,4.62
2018-06-16T10:10:27.846Z,3.98
2018-06-16T10:13:00.506Z,4.42
2018-06-16T10:15:32.952Z,8.73
2018-06-16T10:18:05.374Z,2.77
2018-06-16T10:20:37.786Z,6.50
2018-06-16T10:23:10.202Z,3.90
2018-06-16T10:25:42.698Z,4.10
2018-06-16T10:28:15.385Z,7.20
2018-06-16T10:30:47.929Z,6.08
2018-06-16T10:33:20.777Z,6.80
2018-06-16T10:35:53.773Z,7.97
2018-06-16T10:38:26.442Z,7.35
2018-06-16T10:40:59.120Z,3.37
2018-06-16T10:43:31.800Z,4.65
2018-06-16T10:46:04.211Z,4.17
2018-06-16T10:48:37.056Z,3.47
2018-06-16T10:51:09.531Z,3.70
2018-06-16T10:53:42.010Z,6.47
2018-06-16T10:56:14.681Z,6.35
2018-06-16T10:58:47.159Z,3.42
2018-06-16T11:01:19.581Z,5.35
2018-06-16T11:03:52.009Z,6.58
2018-06-16T11:06:24.644Z,4.78
2018-06-16T11:08:57.374Z,5.00
2018-06-16T11:11:30.657Z,4.72
2018-06-16T11:14:03.054Z,3.75
2018-06-16T11:16:36.113Z,4.50
2018-06-16T11:19:08.569Z,5.70
2018-06-16T11:21:41.060Z,4.42
2018-06-16T11:24:13.535Z,5.72
2018-06-16T11:26:46.216Z,4.08
2018-06-16T11:29:18.958Z,6.40
2018-06-16T11:31:51.365Z,5.87
2018-06-16T11:34:23.785Z,5.35
2018-06-16T11:36:56.173Z,6.97
2018-06-16T11:39:28.687Z,5.80
2018-06-16T11:42:01.087Z,4.17
2018-06-16T11:44:33.493Z,4.45
2018-06-16T11:47:06.209Z,5.80
2018-06-16T11:49:38.653Z,2.50
2018-06-16T11:52:11.058Z,3.95
2018-06-16T11:54:43.487Z,7.08
2018-06-16T11:57:15.900Z,4.10
2018-06-16T11:59:48.731Z,2.58
2018-06-16T12:02:21.155Z,4.92
2018-06-16T12:04:53.829Z,5.35
2018-06-16T12:07:26.526Z,6.10
2018-06-16T12:09:59.023Z,3.85
2018-06-16T12:12:31.463Z,5.85
2018-06-16T12:15:03.878Z,5.37
2018-06-16T12:17:36.505Z,4.90
2018-06-16T12:20:08.943Z,7.78
2018-06-16T12:22:41.354Z,8.33
2018-06-16T12:25:14.141Z,3.10
2018-06-16T12:27:46.606Z,3.85
2018-06-16T12:30:19.052Z,5.45
2018-06-16T12:32:51.560Z,6.03
2018-06-16T12:35:23.984Z,5.22
2018-06-16T12:37:56.448Z,7.15
2018-06-16T12:40:29.098Z,5.92
2018-06-16T12:43:01.558Z,3.70
2018-06-16T12:45:33.980Z,6.53
2018-06-16T12:48:06.442Z,6.30
2018-06-16T12:50:38.874Z,4.25
2018-06-16T12:53:11.557Z,8.60
2018-06-16T12:55:43.974Z,3.72
2018-06-16T12:58:16.377Z,6.72
2018-06-16T13:00:49.049Z,4.70
2018-06-16T13:03:21.453Z,3.58
2018-06-16T13:05:54.133Z,5.37
2018-06-16T13:08:26.605Z,5.92
2018-06-16T13:10:59.021Z,3.02
2018-06-16T13:13:31.710Z,6.05
2018-06-16T13:16:04.447Z,5.12
2018-06-16T13:18:36.962Z,4.40
2018-06-16T13:21:09.382Z,6.08
2018-06-16T13:23:42.062Z,6.00
2018-06-16T13:26:15.049Z,6.10
2018-06-16T13:28:47.462Z,5.60
2018-06-16T13:31:20.205Z,5.42
2018-06-16T13:33:52.617Z,6.53
2018-06-16T13:36:25.374Z,9.45
2018-06-16T13:38:57.798Z,8.50
2018-06-16T13:41:30.213Z,7.87
2018-06-16T13:44:02.614Z,9.28
2018-06-16T13:46:35.317Z,8.80
2018-06-16T13:49:07.734Z,9.95
2018-06-16T13:51:40.448Z,9.30
2018-06-16T13:54:12.866Z,7.72
2018-06-16T13:56:45.384Z,7.75
2018-06-16T13:59:17.727Z,6.83
2018-06-16T14:01:50.489Z,9.68
2018-06-16T14:04:23.186Z,7.33
2018-06-16T14:06:55.592Z,7.80
2018-06-16T14:09:28.305Z,11.35
2018-06-16T14:12:00.969Z,6.85
2018-06-16T14:14:33.353Z,6.90
2018-06-16T14:17:06.042Z,6.35
2018-06-16T14:19:38.677Z,7.10
2018-06-16T14:22:11.629Z,8.03
2018-06-16T14:24:44.017Z,5.90
2018-06-16T14:27:17.066Z,4.60
2018-06-16T14:29:49.449Z,4.35
2018-06-16T14:32:21.875Z,5.12
2018-06-16T14:34:54.353Z,6.97
2018-06-16T14:37:27.086Z,7.10
2018-06-16T14:39:59.718Z,5.47
2018-06-16T14:42:32.448Z,3.77
2018-06-16T14:45:04.843Z,7.53
2018-06-16T14:47:37.636Z,8.10
2018-06-16T14:50:10.054Z,6.05
2018-06-16T14:52:42.728Z,4.90
2018-06-16T14:55:15.133Z,5.50
2018-06-16T14:57:47.549Z,7.65
2018-06-16T15:00:20.238Z,7.92
2018-06-16T15:02:52.657Z,5.80
2018-06-16T15:05:25.070Z,6.08
2018-06-16T15:07:57.487Z,5.15
2018-06-16T15:10:30.124Z,6.08
2018-06-16T15:13:02.545Z,5.53
2018-06-16T15:15:34.946Z,2.85
2018-06-16T15:18:07.362Z,3.80
2018-06-16T15:20:39.756Z,4.33
2018-06-16T15:23:12.179Z,4.95
2018-06-16T15:25:44.813Z,4.83
2018-06-16T15:28:17.486Z,6.33
2018-06-16T15:30:50.126Z,4.78
2018-06-16T15:33:22.551Z,4.92
2018-06-16T15:35:55.345Z,4.85
2018-06-16T15:38:27.965Z,3.85
2018-06-16T15:41:00.649Z,9.00
2018-06-16T15:43:33.053Z,4.97
2018-06-16T15:46:05.523Z,4.08
2018-06-16T15:48:37.930Z,5.53
2018-06-16T15:51:10.654Z,5.42
2018-06-16T15:53:43.033Z,3.92
2018-06-16T15:56:15.429Z,3.65
2018-06-16T15:58:47.813Z,6.22
2018-06-16T16:01:20.446Z,6.17
2018-06-16T16:03:53.147Z,5.58
2018-06-16T16:06:25.809Z,11.22
2018-06-16T16:08:58.189Z,9.55
2018-06-16T16:11:30.609Z,8.13
2018-06-16T16:14:02.996Z,6.85
2018-06-16T16:16:35.433Z,9.40
2018-06-16T16:19:07.827Z,9.50
2018-06-16T16:21:40.233Z,14.20
2018-06-16T16:24:12.613Z,10.68
2018-06-16T16:26:45.294Z,13.30
2018-06-16T16:29:17.691Z,12.87
2018-06-16T16:31:50.169Z,12.67
2018-06-16T16:34:22.558Z,12.97
2018-06-16T16:36:54.945Z,9.13
2018-06-16T16:39:27.345Z,10.07
2018-06-16T16:41:59.749Z,7.60
2018-06-16T16:44:32.146Z,12.87
2018-06-16T16:47:04.566Z,13.73
2018-06-16T16:49:37.234Z,12.67
2018-06-16T16:52:09.673Z,13.40
2018-06-16T16:54:42.081Z,12.37
2018-06-16T16:57:14.507Z,12.57
2018-06-16T16:59:46.940Z,15.47
2018-06-16T17:02:19.361Z,10.43
2018-06-16T17:04:52.014Z,12.73
2018-06-16T17:07:24.433Z,14.57
2018-06-16T17:09:57.126Z,12.77
2018-06-16T17:12:29.559Z,13.37
2018-06-16T17:15:02.269Z,13.37
2018-06-16T17:17:34.697Z,12.93
2018-06-16T17:20:07.096Z,15.77
2018-06-16T17:22:39.553Z,11.70
2018-06-16T17:25:12.296Z,12.40
2018-06-16T17:27:44.742Z,13.90
2018-06-16T17:30:17.471Z,11.70
2018-06-16T17:32:50.230Z,13.37
2018-06-16T17:35:22.633Z,10.10
2018-06-16T17:37:55.310Z,12.70
2018-06-16T17:40:27.712Z,13.47
2018-06-16T17:43:00.161Z,12.57
2018-06-16T17:45:32.590Z,14.83
2018-06-16T17:48:05.289Z,10.63
2018-06-16T17:50:37.709Z,13.77
2018-06-16T17:53:10.158Z,14.03
2018-06-16T17:55:42.563Z,14.67
2018-06-16T17:58:15.298Z,12.63
2018-06-16T18:00:47.953Z,21.57
2018-06-16T18:03:20.371Z,24.97
2018-06-16T18:05:53.130Z,24.63
2018-06-16T18:08:25.887Z,18.73
2018-06-16T18:10:58.324Z,22.53
2018-06-16T18:13:31.061Z,30.00
2018-06-16T18:16:03.540Z,33.07
2018-06-16T18:18:36.195Z,22.70
2018-06-16T18:21:08.897Z,24.30
2018-06-16T18:23:41.322Z,18.87
2018-06-16T18:26:14.050Z,16.70
2018-06-16T18:28:46.468Z,22.10
2018-06-16T18:31:18.883Z,16.20
2018-06-16T18:33:51.333Z,19.13
2018-06-16T18:36:23.854Z,17.37
2018-06-16T18:38:56.625Z,17.37
2018-06-16T18:41:29.303Z,22.03
2018-06-16T18:44:01.809Z,19.60
2018-06-16T18:46:34.517Z,17.90
2018-06-16T18:49:07.444Z,19.40
2018-06-16T18:51:39.818Z,21.47
2018-06-16T18:54:12.218Z,20.37
2018-06-16T18:56:44.605Z,17.73
2018-06-16T18:59:17.301Z,20.30
2018-06-16T19:01:49.711Z,15.37
2018-06-16T19:04:22.142Z,16.77
2018-06-16T19:06:54.541Z,20.63
2018-06-16T19:09:26.974Z,18.50
2018-06-16T19:11:59.650Z,20.43
2018-06-16T19:14:32.068Z,19.20
2018-06-16T19:17:04.477Z,18.80
2018-06-16T19:19:36.880Z,48.17
2018-06-16T19:22:09.291Z,36.03
2018-06-16T19:24:41.694Z,22.70
2018-06-16T19:27:14.085Z,21.33
2018-06-16T19:29:46.510Z,22.33
2018-06-16T19:32:18.889Z,21.10
2018-06-16T19:34:51.293Z,16.50
2018-06-16T19:37:23.977Z,20.90
2018-06-16T19:39:56.460Z,23.20
2018-06-16T19:42:29.169Z,19.13
2018-06-16T19:45:01.541Z,20.47
2018-06-16T19:47:33.936Z,21.77
2018-06-16T19:50:06.458Z,21.03
2018-06-16T19:52:38.844Z,21.77
2018-06-16T19:55:11.841Z,23.93
2018-06-16T19:57:44.514Z,25.70
2018-06-16T20:00:16.910Z,19.00
2018-06-16T20:02:49.591Z,21.90
2018-06-16T20:05:21.998Z,14.07
2018-06-16T20:07:54.429Z,17.07
2018-06-16T20:10:26.868Z,16.03
2018-06-16T20:12:59.558Z,15.43
2018-06-16T20:15:32.807Z,18.20
2018-06-16T20:18:05.197Z,13.93
2018-06-16T20:20:37.593Z,16.13
2018-06-16T20:23:09.973Z,20.10
2018-06-16T20:25:42.658Z,16.50
2018-06-16T20:28:15.300Z,15.63
2018-06-16T20:30:47.993Z,14.90
2018-06-16T20:33:20.385Z,16.83
2018-06-16T20:35:53.053Z,17.10
2018-06-16T20:38:25.441Z,16.63
2018-06-16T20:40:57.854Z,21.23
2018-06-16T20:43:30.569Z,14.13
2018-06-16T20:46:02.975Z,16.17
2018-06-16T20:48:35.397Z,15.07
2018-06-16T20:51:07.833Z,15.37
2018-06-16T20:53:40.234Z,16.03
2018-06-16T20:56:12.962Z,15.17
2018-06-16T20:58:45.358Z,21.43
2018-06-16T21:01:17.827Z,18.33
2018-06-16T21:03:50.248Z,20.47
2018-06-16T21:06:22.949Z,16.60
2018-06-16T21:08:55.355Z,12.80
2018-06-16T21:11:27.797Z,19.83
2018-06-16T21:14:00.199Z,16.67
2018-06-16T21:16:32.845Z,20.03
2018-06-16T21:19:05.622Z,21.27
2018-06-16T21:21:38.135Z,24.13
2018-06-16T21:24:10.764Z,34.70
2018-06-16T21:26:43.467Z,23.13
2018-06-16T21:29:15.917Z,28.33
2018-06-16T21:31:48.289Z,22.73
2018-06-16T21:34:20.718Z,31.37
2018-06-16T21:36:53.454Z,24.60
2018-06-16T21:39:25.922Z,20.80
2018-06-16T21:41:58.637Z,20.27
2018-06-16T21:44:31.288Z,21.50
2018-06-16T21:47:03.969Z,21.80
2018-06-16T21:49:36.394Z,23.23
2018-06-16T21:52:09.045Z,18.53
2018-06-16T21:54:41.794Z,17.73
2018-06-16T21:57:14.471Z,27.73
2018-06-16T21:59:46.908Z,18.47
2018-06-16T22:02:19.325Z,14.20
2018-06-16T22:04:52.029Z,16.30
2018-06-16T22:07:24.772Z,17.43
2018-06-16T22:09:57.449Z,15.70
2018-06-16T22:12:29.854Z,14.43
2018-06-16T22:15:02.282Z,17.63
2018-06-16T22:17:34.689Z,17.13
2018-06-16T22:20:07.093Z,20.07
2018-06-16T22:22:39.497Z,18.97
2018-06-16T22:25:12.204Z,15.63
2018-06-16T22:27:44.908Z,17.57
2018-06-16T22:30:17.136Z,14.33
2018-06-16T22:32:49.546Z,16.00
2018-06-16T22:35:21.970Z,15.97
2018-06-16T22:37:54.674Z,16.87
2018-06-16T22:40:27.569Z,19.23
2018-06-16T22:42:59.985Z,18.40
2018-06-16T22:45:32.416Z,22.30
2018-06-16T22:48:05.045Z,17.53
2018-06-16T22:50:37.453Z,16.60
2018-06-16T22:53:10.166Z,14.20
2018-06-16T22:55:42.561Z,16.90
2018-06-16T22:58:15.273Z,16.70
2018-06-16T23:00:47.674Z,20.27
2018-06-16T23:03:20.570Z,17.17
2018-06-16T23:05:52.967Z,14.93
2018-06-16T23:08:25.345Z,15.50
2018-06-16T23:10:57.745Z,17.50
2018-06-16T23:13:30.365Z,19.73
2018-06-16T23:16:03.454Z,18.70
2018-06-16T23:18:36.153Z,15.17
2018-06-16T23:21:08.777Z,15.63
2018-06-16T23:23:41.194Z,17.77
2018-06-16T23:26:13.861Z,15.53
2018-06-16T23:28:46.541Z,17.63
2018-06-16T23:31:18.931Z,18.20
2018-06-16T23:33:51.318Z,18.50
2018-06-16T23:36:24.037Z,16.80
2018-06-16T23:38:56.417Z,18.90
2018-06-16T23:41:29.113Z,16.77
2018-06-16T23:44:01.492Z,17.93
2018-06-16T23:46:33.894Z,15.53
2018-06-16T23:49:06.533Z,18.27
2018-06-16T23:51:38.962Z,18.07
2018-06-16T23:54:11.689Z,21.20
2018-06-16T23:56:44.332Z,16.17
2018-06-16T23:59:17.046Z,17.70
